expedia.com.sg alexa rank chart, expedia.com.sg alexa rank daily changes

expedia.com.sg alexa rank chart, expedia.com.sg alexa rank daily changes

expedia.com.sg
Actual rank:
26 404

RANK HISTORY

Date Rank Diff
2018/09/22 26 404 -1 632
2018/09/21 28 036 -1 472
2018/09/20 29 508 +2 713
2018/09/19 26 795 -10 155
2018/09/18 36 950 +13 442
2018/09/17 23 508 -10 223
2018/09/16 33 731 +5 574
2018/09/15 28 157 +3 300
2018/09/14 24 857 +2 352
2018/09/13 22 505 -7 611
2018/09/12 30 116 +2 593
2018/09/11 27 523 +6 438
2018/09/10 21 085 -6 932
2018/09/09 28 017 +7 223
2018/09/08 20 794 -12 060
2018/09/07 32 854 +6 613
2018/09/06 26 241 +6 619
2018/09/05 19 622 -1 975
2018/09/04 21 597 -4 344
2018/09/03 25 941 +110
2018/09/02 25 831 +3 192
2018/09/01 22 639 +1 814
2018/08/31 20 825 -246
2018/08/30 21 071 -3 149
2018/08/29 24 220 +2 853
2018/08/28 21 367 -810
2018/08/27 22 177 -496
2018/08/26 22 673 +3 318
2018/08/25 19 355 +94
2018/08/24 19 261 -5 191
2018/08/23 24 452 +2 490
2018/08/22 21 962 +1 317
2018/08/21 20 645 +3 713
2018/08/20 16 932 -5 837
2018/08/19 22 769 -7 458
2018/08/18 30 227 +5 855
2018/08/17 24 372 +2 651
2018/08/16 21 721 +4 783
2018/08/15 16 938 -523
2018/08/14 17 461 -1 672
2018/08/13 19 133 -10 866
2018/08/12 29 999 +5 299
2018/08/11 24 700 -6 767
2018/08/10 31 467 +4 241
2018/08/09 27 226 +4 933
2018/08/08 22 293 +7 648
2018/08/07 14 645 -4 041
2018/08/06 18 686 -6 691
2018/08/05 25 377 +1 309
2018/08/04 24 068 +1 242
2018/08/03 22 826 +5 223
2018/08/02 17 603 -7 968
2018/08/01 25 571 +170
2018/07/31 25 401 +916
2018/07/30 24 485 -7 217
2018/07/29 31 702 +9 812
2018/07/28 21 890 -3 735
2018/07/27 25 625 +504
2018/07/26 25 121 +7 748
2018/07/25 17 373 +614
2018/07/24 16 759

WIDGET FOR YOUR SITE

DOMAINS WITH THE NEAREST RANK

Domain Rank
youtu.be 26 399
aljadeed.tv 26 400
p03.space 26 401
androidhive.info 26 402
aihuishou.com 26 403
expedia.com.sg 26 404
theresponse.jp 26 405
tvindiansex.com 26 406
kharkovforum.com 26 407
mojtv.hr 26 408
aflamsexnek.com 26 409

DOMAINS WITH THE NEAREST RANK BY TLD .com.sg

Domain Rank
singaporepools.com.sg 21 076
propertyguru.com.sg 21 228
citibank.com.sg 23 207
expedia.com.sg 26 404
skyscanner.com.sg 27 125
gv.com.sg 28 127
ebay.com.sg 29 643
airbnb.com.sg 32 190
businesstimes.com.sg 33 569